Time;durP1;ratioP1;P1;durP2;ratioP2;P2;SDS_P1;SDS_P2;PMS_P1;PMS_P2;Temp;Humidity;BMP_temperature;BMP_pressure;BME280_temperature;BME280_humidity;BME280_pressure;Samples;Min_cycle;Max_cycle;Signal;HPM_P1;HPM_P2
2022/03/13 00:00:23;;;;;;;;;;;8.10;62.90;;;;;;5034318;28;19920;-78
2022/03/13 00:02:52;;;;;;;;;;;8.10;62.80;;;;;;5036321;28;20332;-78
2022/03/13 00:05:18;;;;;;;;;;;8.10;62.40;;;;;;5034081;28;19929;-78
2022/03/13 00:07:44;;;;;;;;;;;8.10;62.30;;;;;;5051726;28;19921;-79
2022/03/13 00:10:10;;;;;;;;;;;8.00;62.60;;;;;;5035677;28;19993;-79
2022/03/13 00:12:36;;;;;;;;;;;8.00;62.90;;;;;;5036977;28;19939;-79
2022/03/13 00:15:12;;;;;;;;;;;7.90;63.40;;;;;;5035620;28;20012;-78
2022/03/13 00:17:38;;;;;;;;;;;7.80;63.70;;;;;;5033553;28;20500;-78
2022/03/13 00:20:04;;;;;;;;;;;7.80;63.90;;;;;;5033429;28;19913;-78
2022/03/13 00:22:30;;;;;;;;;;;7.80;64.20;;;;;;5031913;28;19928;-78
2022/03/13 00:24:58;;;;;;;;;;;7.70;64.20;;;;;;5035329;28;19924;-78
2022/03/13 00:27:24;;;;;;;;;;;7.70;64.60;;;;;;5036901;28;19913;-79
2022/03/13 00:29:49;;;;;;;;;;;7.70;63.20;;;;;;5035393;28;19921;-78
2022/03/13 00:32:16;;;;;;;;;;;7.70;63.40;;;;;;5035116;28;19971;-79
2022/03/13 00:34:41;;;;;;;;;;;7.80;62.20;;;;;;5031699;28;20448;-78
2022/03/13 00:37:07;;;;;;;;;;;7.80;62.50;;;;;;5035216;28;19917;-79
2022/03/13 00:39:34;;;;;;;;;;;7.90;61.40;;;;;;5050952;28;20424;-79
2022/03/13 00:41:59;;;;;;;;;;;8.00;61.10;;;;;;5034667;28;19933;-78
2022/03/13 00:44:25;;;;;;;;;;;8.00;60.80;;;;;;5049648;28;19925;-78
2022/03/13 00:46:51;;;;;;;;;;;8.00;60.30;;;;;;5045867;28;19913;-79
2022/03/13 00:49:16;;;;;;;;;;;8.00;59.80;;;;;;5036285;28;20328;-78
2022/03/13 00:51:42;;;;;;;;;;;8.00;60.40;;;;;;5068345;28;19917;-77
2022/03/13 00:54:07;;;;;;;;;;;8.00;60.40;;;;;;5054691;28;19897;-78
2022/03/13 00:56:33;;;;;;;;;;;8.00;59.90;;;;;;5046309;28;20374;-78
2022/03/13 00:58:59;;;;;;;;;;;8.10;58.20;;;;;;5066752;28;19917;-78
2022/03/13 01:01:24;;;;;;;;;;;8.10;58.70;;;;;;5036302;28;19913;-78
2022/03/13 01:03:51;;;;;;;;;;;8.00;59.10;;;;;;5033247;28;20389;-78
2022/03/13 01:06:17;;;;;;;;;;;8.00;57.80;;;;;;5028946;28;19914;-78
2022/03/13 01:08:44;;;;;;;;;;;8.10;57.20;;;;;;5032461;28;19913;-77
2022/03/13 01:11:10;;;;;;;;;;;8.30;55.70;;;;;;5032007;28;19913;-78
2022/03/13 01:13:35;;;;;;;;;;;8.20;55.50;;;;;;5023996;28;20386;-78
2022/03/13 01:16:13;;;;;;;;;;;8.20;56.70;;;;;;5025678;28;20023;-78
2022/03/13 01:18:40;;;;;;;;;;;8.20;55.10;;;;;;5031234;28;19920;-78
2022/03/13 01:21:05;;;;;;;;;;;8.10;56.70;;;;;;5029529;28;19921;-78
2022/03/13 01:23:31;;;;;;;;;;;8.00;56.30;;;;;;5032699;28;19909;-78
2022/03/13 01:26:15;;;;;;;;;;;7.90;56.10;;;;;;5026634;28;19917;-78
2022/03/13 01:28:41;;;;;;;;;;;7.80;55.90;;;;;;5045110;28;19919;-78
2022/03/13 01:31:07;;;;;;;;;;;7.80;56.80;;;;;;5030498;28;19917;-78
2022/03/13 01:33:32;;;;;;;;;;;7.70;56.20;;;;;;5029461;28;19979;-78
2022/03/13 01:35:58;;;;;;;;;;;7.70;56.00;;;;;;5031119;28;19917;-78
2022/03/13 01:38:24;;;;;;;;;;;7.80;56.00;;;;;;5034354;28;19952;-78
2022/03/13 01:40:49;;;;;;;;;;;7.70;57.30;;;;;;5049533;28;20134;-78
2022/03/13 01:43:15;;;;;;;;;;;7.60;57.60;;;;;;5030124;28;19956;-78
2022/03/13 01:45:41;;;;;;;;;;;7.50;58.00;;;;;;5041178;28;19917;-79
2022/03/13 01:48:07;;;;;;;;;;;7.50;58.60;;;;;;5030141;28;20400;-78
2022/03/13 01:50:32;;;;;;;;;;;7.40;58.60;;;;;;5024049;28;19996;-78
2022/03/13 01:52:58;;;;;;;;;;;7.30;59.10;;;;;;5034866;28;20400;-79
2022/03/13 01:55:23;;;;;;;;;;;7.30;59.00;;;;;;5037230;28;19920;-79
2022/03/13 01:57:49;;;;;;;;;;;7.20;59.60;;;;;;5042869;28;19920;-79
2022/03/13 02:00:16;;;;;;;;;;;7.10;60.20;;;;;;5037422;28;19928;-79
2022/03/13 02:02:43;;;;;;;;;;;7.10;60.10;;;;;;5044497;28;19972;-79
2022/03/13 02:05:16;;;;;;;;;;;7.00;60.20;;;;;;5058588;28;19977;-78
2022/03/13 02:07:45;;;;;;;;;;;7.00;61.10;;;;;;5042231;28;19907;-78
2022/03/13 02:10:11;;;;;;;;;;;7.00;61.80;;;;;;5034055;28;20429;-79
2022/03/13 02:12:37;;;;;;;;;;;7.00;60.60;;;;;;5035622;28;20301;-79
2022/03/13 02:15:02;;;;;;;;;;;7.00;60.40;;;;;;5036055;28;19924;-79
2022/03/13 02:17:33;;;;;;;;;;;7.00;59.70;;;;;;5040120;28;20354;-79
2022/03/13 02:19:58;;;;;;;;;;;7.00;59.70;;;;;;5052381;28;19920;-78
2022/03/13 02:22:24;;;;;;;;;;;6.90;61.00;;;;;;5035613;28;19921;-78
2022/03/13 02:24:51;;;;;;;;;;;6.80;60.80;;;;;;5037518;28;19979;-79
2022/03/13 02:27:19;;;;;;;;;;;6.80;60.70;;;;;;5040231;28;19936;-79
2022/03/13 02:29:45;;;;;;;;;;;6.70;61.20;;;;;;5051391;28;20443;-79
2022/03/13 02:32:11;;;;;;;;;;;6.70;61.60;;;;;;5037379;28;19927;-78
2022/03/13 02:34:36;;;;;;;;;;;6.70;61.70;;;;;;5052067;28;19982;-78
2022/03/13 02:37:02;;;;;;;;;;;6.60;61.50;;;;;;5054627;28;19913;-78
2022/03/13 02:39:28;;;;;;;;;;;6.60;62.00;;;;;;5037795;28;20392;-79
2022/03/13 02:41:54;;;;;;;;;;;6.60;62.10;;;;;;5039436;28;19913;-78
2022/03/13 02:44:19;;;;;;;;;;;6.50;62.50;;;;;;5036856;28;19918;-78
2022/03/13 02:46:48;;;;;;;;;;;6.50;61.70;;;;;;5036786;28;19986;-79
2022/03/13 02:49:14;;;;;;;;;;;6.50;62.00;;;;;;5034611;28;19913;-78
2022/03/13 02:51:39;;;;;;;;;;;6.50;61.10;;;;;;5038225;28;19913;-78
2022/03/13 02:54:05;;;;;;;;;;;6.40;61.20;;;;;;5052493;28;19920;-79
2022/03/13 02:56:30;;;;;;;;;;;6.30;61.30;;;;;;5032315;28;19913;-78
2022/03/13 02:58:56;;;;;;;;;;;6.30;62.20;;;;;;5047113;28;19917;-79
2022/03/13 03:01:21;;;;;;;;;;;6.30;62.30;;;;;;5036642;28;20427;-79
2022/03/13 03:03:52;;;;;;;;;;;6.30;61.50;;;;;;5036478;28;20301;-78
2022/03/13 03:06:18;;;;;;;;;;;6.30;60.30;;;;;;5034085;28;19924;-78
2022/03/13 03:08:43;;;;;;;;;;;6.30;61.50;;;;;;5031987;28;20003;-79
2022/03/13 03:11:09;;;;;;;;;;;6.30;60.20;;;;;;5048628;28;20353;-78
2022/03/13 03:13:34;;;;;;;;;;;6.30;59.80;;;;;;5025741;28;19921;-78
2022/03/13 03:15:59;;;;;;;;;;;6.30;60.60;;;;;;5032282;28;20018;-78
2022/03/13 03:18:25;;;;;;;;;;;6.40;58.90;;;;;;5033298;28;19913;-80
2022/03/13 03:20:51;;;;;;;;;;;6.30;59.10;;;;;;5028724;28;19948;-78
2022/03/13 03:23:16;;;;;;;;;;;6.30;58.70;;;;;;5030904;28;19921;-77
2022/03/13 03:25:42;;;;;;;;;;;6.20;59.00;;;;;;5030424;28;19928;-78
2022/03/13 03:28:08;;;;;;;;;;;6.20;59.40;;;;;;5031977;28;19963;-77
2022/03/13 03:30:33;;;;;;;;;;;6.10;58.00;;;;;;5029900;28;19917;-78
2022/03/13 03:33:02;;;;;;;;;;;6.20;58.80;;;;;;5030310;28;19955;-77
2022/03/13 03:35:28;;;;;;;;;;;6.20;57.50;;;;;;5029796;28;20016;-80
2022/03/13 03:37:54;;;;;;;;;;;6.20;57.70;;;;;;5052022;28;19956;-80
2022/03/13 03:40:21;;;;;;;;;;;6.10;58.90;;;;;;5036087;28;19960;-80
2022/03/13 03:42:46;;;;;;;;;;;6.10;58.20;;;;;;5053571;28;19924;-80
2022/03/13 03:45:13;;;;;;;;;;;6.00;58.90;;;;;;5051727;28;19913;-81
2022/03/13 03:47:39;;;;;;;;;;;5.90;59.00;;;;;;5032802;28;19936;-80
2022/03/13 03:50:04;;;;;;;;;;;5.80;58.90;;;;;;5033942;28;19913;-80
2022/03/13 03:52:30;;;;;;;;;;;5.80;58.80;;;;;;5039364;28;19917;-80
2022/03/13 03:54:55;;;;;;;;;;;5.80;59.10;;;;;;5054251;28;19956;-80
2022/03/13 03:57:21;;;;;;;;;;;5.80;58.10;;;;;;5056351;28;19964;-80
2022/03/13 03:59:46;;;;;;;;;;;5.80;58.20;;;;;;5040561;28;19917;-80
2022/03/13 04:02:12;;;;;;;;;;;5.70;58.20;;;;;;5049214;28;19909;-81
2022/03/13 04:04:39;;;;;;;;;;;5.70;58.30;;;;;;5045693;28;19913;-81
2022/03/13 04:07:04;;;;;;;;;;;5.80;57.00;;;;;;5045266;28;19920;-81
2022/03/13 04:09:30;;;;;;;;;;;5.70;57.90;;;;;;5047013;28;19913;-78
2022/03/13 04:11:56;;;;;;;;;;;5.60;58.40;;;;;;5037873;28;19944;-78
2022/03/13 04:14:22;;;;;;;;;;;5.60;58.30;;;;;;5038732;28;19931;-80
2022/03/13 04:16:48;;;;;;;;;;;5.60;57.90;;;;;;5040612;28;20019;-81
2022/03/13 04:19:13;;;;;;;;;;;5.60;57.60;;;;;;5039515;28;19910;-80
2022/03/13 04:21:42;;;;;;;;;;;5.60;57.50;;;;;;5033245;28;19913;-80
2022/03/13 04:24:08;;;;;;;;;;;5.60;57.80;;;;;;5035337;28;19936;-80
2022/03/13 04:26:33;;;;;;;;;;;5.50;58.80;;;;;;5052200;28;20004;-80
2022/03/13 04:28:59;;;;;;;;;;;5.50;59.00;;;;;;5033517;28;19941;-77
2022/03/13 04:31:24;;;;;;;;;;;5.50;58.70;;;;;;5032378;28;19913;-77
2022/03/13 04:33:50;;;;;;;;;;;5.60;58.30;;;;;;5034442;28;19978;-78
2022/03/13 04:36:22;;;;;;;;;;;5.50;58.70;;;;;;5038791;28;19959;-79
2022/03/13 04:38:47;;;;;;;;;;;5.60;59.30;;;;;;5054643;28;20277;-79
2022/03/13 04:41:13;;;;;;;;;;;5.60;59.10;;;;;;5041887;28;19914;-80
2022/03/13 04:43:38;;;;;;;;;;;5.50;58.80;;;;;;5056418;28;19939;-79
2022/03/13 04:46:04;;;;;;;;;;;5.50;58.10;;;;;;5036116;28;19924;-78
2022/03/13 04:48:32;;;;;;;;;;;5.50;58.90;;;;;;5037917;28;19921;-78
2022/03/13 04:50:59;;;;;;;;;;;5.60;58.00;;;;;;5036325;28;19920;-79
2022/03/13 04:53:25;;;;;;;;;;;5.50;58.80;;;;;;5054041;28;20008;-79
2022/03/13 04:55:50;;;;;;;;;;;5.50;57.30;;;;;;5052398;28;19952;-79
2022/03/13 04:58:16;;;;;;;;;;;5.40;58.10;;;;;;5037519;28;19921;-78
2022/03/13 05:00:42;;;;;;;;;;;5.40;58.00;;;;;;5041046;28;20000;-79
2022/03/13 05:03:10;;;;;;;;;;;5.40;58.60;;;;;;5054944;28;19917;-78
2022/03/13 05:05:36;;;;;;;;;;;5.30;59.00;;;;;;5050284;28;19923;-79
2022/03/13 05:08:04;;;;;;;;;;;5.30;60.10;;;;;;5059388;28;19988;-79
2022/03/13 05:10:35;;;;;;;;;;;5.30;60.00;;;;;;5047271;28;20408;-79
2022/03/13 05:13:00;;;;;;;;;;;5.30;60.40;;;;;;5038672;28;20316;-79
2022/03/13 05:15:26;;;;;;;;;;;5.20;60.60;;;;;;5032991;28;19924;-79
2022/03/13 05:17:52;;;;;;;;;;;5.20;60.50;;;;;;5053054;28;19913;-79
2022/03/13 05:20:18;;;;;;;;;;;5.30;60.20;;;;;;5034575;28;19913;-79
2022/03/13 05:22:43;;;;;;;;;;;5.30;59.80;;;;;;5036103;28;20562;-79
2022/03/13 05:25:09;;;;;;;;;;;5.20;58.60;;;;;;5038955;28;19916;-80
2022/03/13 05:27:35;;;;;;;;;;;5.20;59.10;;;;;;5039364;28;19945;-79
2022/03/13 05:30:00;;;;;;;;;;;5.10;58.40;;;;;;5035326;28;19925;-79
2022/03/13 05:32:25;;;;;;;;;;;5.10;58.80;;;;;;5036565;28;19995;-79
2022/03/13 05:34:51;;;;;;;;;;;5.20;57.50;;;;;;5037436;28;20398;-78
2022/03/13 05:37:17;;;;;;;;;;;5.10;58.50;;;;;;5037417;28;20300;-78
2022/03/13 05:39:42;;;;;;;;;;;5.10;56.80;;;;;;5052800;28;20369;-78
2022/03/13 05:42:09;;;;;;;;;;;5.10;56.30;;;;;;5040182;28;19924;-78
2022/03/13 05:44:36;;;;;;;;;;;5.20;57.60;;;;;;5041843;28;19971;-79
2022/03/13 05:47:02;;;;;;;;;;;5.20;56.50;;;;;;5048699;28;19913;-79
2022/03/13 05:49:28;;;;;;;;;;;5.20;56.00;;;;;;5025710;28;19925;-79
2022/03/13 05:51:54;;;;;;;;;;;5.20;55.90;;;;;;5027726;28;20428;-79
2022/03/13 05:54:20;;;;;;;;;;;5.20;55.80;;;;;;5032365;28;20334;-79
2022/03/13 05:56:46;;;;;;;;;;;5.20;56.70;;;;;;5048871;28;19919;-79
2022/03/13 05:59:11;;;;;;;;;;;5.10;56.20;;;;;;5032785;28;19917;-80
2022/03/13 06:01:38;;;;;;;;;;;5.30;55.60;;;;;;5032523;28;19995;-80
2022/03/13 06:04:03;;;;;;;;;;;5.30;56.60;;;;;;5048754;28;20008;-79
2022/03/13 06:06:30;;;;;;;;;;;5.20;56.50;;;;;;5050567;28;20049;-79
2022/03/13 06:08:56;;;;;;;;;;;5.30;56.40;;;;;;5034790;28;19913;-80
2022/03/13 06:11:21;;;;;;;;;;;5.30;55.90;;;;;;5052818;28;19913;-80
2022/03/13 06:13:46;;;;;;;;;;;5.40;55.40;;;;;;5039444;28;20004;-80
2022/03/13 06:16:12;;;;;;;;;;;5.40;55.70;;;;;;5051204;28;19913;-80
2022/03/13 06:18:37;;;;;;;;;;;5.40;56.30;;;;;;5035893;28;19970;-80
2022/03/13 06:21:03;;;;;;;;;;;5.60;54.10;;;;;;5051086;28;20549;-79
2022/03/13 06:23:29;;;;;;;;;;;5.60;54.60;;;;;;5038097;28;19914;-80
2022/03/13 06:25:57;;;;;;;;;;;5.50;55.10;;;;;;5035676;28;19916;-80
2022/03/13 06:28:22;;;;;;;;;;;5.60;55.60;;;;;;5039200;28;19950;-80
2022/03/13 06:30:49;;;;;;;;;;;5.60;57.10;;;;;;5037274;28;20258;-80
2022/03/13 06:33:15;;;;;;;;;;;5.70;53.80;;;;;;5037880;28;19913;-79
2022/03/13 06:35:41;;;;;;;;;;;5.80;52.00;;;;;;5034960;28;19943;-80
2022/03/13 06:38:06;;;;;;;;;;;5.90;51.40;;;;;;5034783;28;19910;-80
2022/03/13 06:40:32;;;;;;;;;;;6.00;51.30;;;;;;5031482;28;20055;-80
2022/03/13 06:42:58;;;;;;;;;;;6.00;53.50;;;;;;5030846;28;19913;-80
2022/03/13 06:45:23;;;;;;;;;;;6.10;53.20;;;;;;5031166;28;19920;-80
2022/03/13 06:47:49;;;;;;;;;;;6.10;53.40;;;;;;5035269;28;20004;-80
2022/03/13 06:50:17;;;;;;;;;;;6.30;54.00;;;;;;5030652;28;20021;-79
2022/03/13 06:52:47;;;;;;;;;;;6.40;52.80;;;;;;5036844;28;19925;-80
2022/03/13 06:55:13;;;;;;;;;;;6.40;53.90;;;;;;5030719;28;19914;-80
2022/03/13 06:57:39;;;;;;;;;;;6.50;54.60;;;;;;5050454;28;19924;-79
2022/03/13 07:00:05;;;;;;;;;;;6.50;55.00;;;;;;5032743;28;19952;-80
2022/03/13 07:02:30;;;;;;;;;;;6.50;54.30;;;;;;5031566;28;20013;-79
2022/03/13 07:04:56;;;;;;;;;;;6.60;54.60;;;;;;5035768;28;19936;-80
2022/03/13 07:07:21;;;;;;;;;;;6.60;54.70;;;;;;5037678;28;19929;-80
2022/03/13 07:09:47;;;;;;;;;;;6.60;54.70;;;;;;5049512;28;19921;-80
2022/03/13 07:12:13;;;;;;;;;;;6.80;55.00;;;;;;5038693;28;19909;-79
2022/03/13 07:14:42;;;;;;;;;;;6.90;52.50;;;;;;5036670;28;20267;-79
2022/03/13 07:17:07;;;;;;;;;;;6.90;52.80;;;;;;5036927;28;19914;-80
2022/03/13 07:19:33;;;;;;;;;;;7.10;53.30;;;;;;5035749;28;19913;-80
2022/03/13 07:21:58;;;;;;;;;;;7.10;53.80;;;;;;5035533;28;20266;-80
2022/03/13 07:24:24;;;;;;;;;;;7.10;52.20;;;;;;5036753;28;19971;-80
2022/03/13 07:26:49;;;;;;;;;;;7.20;52.00;;;;;;5035202;28;19913;-79
2022/03/13 07:29:15;;;;;;;;;;;7.30;51.90;;;;;;5037988;28;20338;-79
2022/03/13 07:31:40;;;;;;;;;;;7.50;51.40;;;;;;5038229;28;19914;-80
2022/03/13 07:34:06;;;;;;;;;;;7.50;50.30;;;;;;5055596;28;20007;-79
2022/03/13 07:36:34;;;;;;;;;;;7.60;51.50;;;;;;5041929;28;19924;-80
2022/03/13 07:39:00;;;;;;;;;;;7.60;50.40;;;;;;5045538;28;20157;-78
2022/03/13 07:41:26;;;;;;;;;;;7.60;49.60;;;;;;5045475;28;19976;-79
2022/03/13 07:43:51;;;;;;;;;;;7.70;50.70;;;;;;5065569;28;19909;-79
2022/03/13 07:46:17;;;;;;;;;;;7.80;49.90;;;;;;5047076;28;19936;-79
2022/03/13 07:48:44;;;;;;;;;;;7.90;50.30;;;;;;5041317;28;19913;-78
2022/03/13 07:51:11;;;;;;;;;;;7.90;49.40;;;;;;5037459;28;19932;-80
2022/03/13 07:53:36;;;;;;;;;;;7.80;47.70;;;;;;5042611;28;19936;-79
2022/03/13 07:56:02;;;;;;;;;;;7.80;48.40;;;;;;5041864;28;19978;-79
2022/03/13 07:58:28;;;;;;;;;;;7.80;50.10;;;;;;5051571;28;19927;-80
2022/03/13 08:00:54;;;;;;;;;;;7.80;52.60;;;;;;5042321;28;19959;-79
2022/03/13 08:03:28;;;;;;;;;;;7.80;50.60;;;;;;5060044;28;19916;-79
2022/03/13 08:05:53;;;;;;;;;;;7.90;46.60;;;;;;5055923;28;19913;-80
2022/03/13 08:08:19;;;;;;;;;;;8.00;46.70;;;;;;5039254;28;19947;-81
2022/03/13 08:10:44;;;;;;;;;;;8.10;48.70;;;;;;5047905;28;19973;-82
2022/03/13 08:13:10;;;;;;;;;;;8.20;48.80;;;;;;5039056;28;19924;-81
2022/03/13 08:15:35;;;;;;;;;;;8.30;47.80;;;;;;5034948;28;19921;-81
2022/03/13 08:18:02;;;;;;;;;;;8.50;47.80;;;;;;5053242;28;19920;-81
2022/03/13 08:20:28;;;;;;;;;;;8.80;49.60;;;;;;5041366;28;19920;-82
2022/03/13 08:22:53;;;;;;;;;;;9.20;49.00;;;;;;5057050;28;19914;-83
2022/03/13 08:25:20;;;;;;;;;;;9.40;49.30;;;;;;5048752;28;19932;-84
2022/03/13 08:27:46;;;;;;;;;;;9.60;48.50;;;;;;5051853;28;19917;-83
2022/03/13 08:30:12;;;;;;;;;;;9.90;45.40;;;;;;5053490;28;19917;-83
2022/03/13 08:32:39;;;;;;;;;;;10.30;44.80;;;;;;5057304;28;19913;-84
2022/03/13 08:35:05;;;;;;;;;;;10.60;42.10;;;;;;5032236;28;19905;-83
2022/03/13 08:37:31;;;;;;;;;;;10.90;40.70;;;;;;5050165;28;19920;-82
2022/03/13 08:39:56;;;;;;;;;;;11.20;39.00;;;;;;5061638;28;19913;-82
2022/03/13 08:42:22;;;;;;;;;;;11.20;40.40;;;;;;5049453;28;19977;-82
2022/03/13 08:44:47;;;;;;;;;;;11.40;38.70;;;;;;5064632;28;19901;-82
2022/03/13 08:47:13;;;;;;;;;;;11.50;38.90;;;;;;5048631;28;19924;-81
2022/03/13 08:49:39;;;;;;;;;;;11.60;38.40;;;;;;5060931;28;20020;-83
2022/03/13 08:52:05;;;;;;;;;;;11.80;39.70;;;;;;5067145;28;19905;-84
2022/03/13 08:54:30;;;;;;;;;;;11.90;38.90;;;;;;5049844;28;19944;-81
2022/03/13 08:56:56;;;;;;;;;;;11.90;38.50;;;;;;5043507;28;19956;-82
2022/03/13 08:59:23;;;;;;;;;;;11.80;39.40;;;;;;5056913;28;19917;-83
2022/03/13 09:01:48;;;;;;;;;;;12.10;38.00;;;;;;5045570;28;20030;-82
2022/03/13 09:04:14;;;;;;;;;;;12.00;38.30;;;;;;5051697;28;20064;-82
2022/03/13 09:06:39;;;;;;;;;;;11.80;38.80;;;;;;5041527;28;20375;-82
2022/03/13 09:09:06;;;;;;;;;;;11.80;40.40;;;;;;5055210;28;19991;-82
2022/03/13 09:11:34;;;;;;;;;;;12.00;40.10;;;;;;5043570;28;19914;-82
2022/03/13 09:13:59;;;;;;;;;;;12.00;39.00;;;;;;5057831;28;19902;-82
2022/03/13 09:16:26;;;;;;;;;;;12.10;39.60;;;;;;5040024;28;20016;-84
2022/03/13 09:18:52;;;;;;;;;;;12.00;40.70;;;;;;5038636;28;19917;-80
2022/03/13 09:21:18;;;;;;;;;;;12.00;40.00;;;;;;5046019;28;19971;-79
2022/03/13 09:23:43;;;;;;;;;;;12.10;40.40;;;;;;5064205;28;19928;-81
2022/03/13 09:26:09;;;;;;;;;;;12.00;40.50;;;;;;5043871;28;19948;-81
2022/03/13 09:28:35;;;;;;;;;;;12.00;40.50;;;;;;5056422;28;19921;-82
2022/03/13 09:31:01;;;;;;;;;;;12.20;40.70;;;;;;5041957;28;19921;-81
2022/03/13 09:33:27;;;;;;;;;;;12.10;41.90;;;;;;5041692;28;20238;-82
2022/03/13 09:35:53;;;;;;;;;;;12.20;41.90;;;;;;5055200;28;19943;-80
2022/03/13 09:38:19;;;;;;;;;;;12.30;41.30;;;;;;5035999;28;19920;-84
2022/03/13 09:40:44;;;;;;;;;;;12.50;41.50;;;;;;5040450;28;19913;-79
2022/03/13 09:43:10;;;;;;;;;;;12.80;41.20;;;;;;5052353;28;19913;-81
2022/03/13 09:45:35;;;;;;;;;;;13.00;40.70;;;;;;5038658;28;19921;-82
2022/03/13 09:48:06;;;;;;;;;;;12.80;41.30;;;;;;5032458;28;20614;-80
2022/03/13 09:50:31;;;;;;;;;;;12.70;42.60;;;;;;5034274;28;19924;-80
2022/03/13 09:52:57;;;;;;;;;;;12.60;43.20;;;;;;5033398;28;19928;-81
2022/03/13 09:55:23;;;;;;;;;;;12.80;42.80;;;;;;5034164;28;19947;-80
2022/03/13 09:57:48;;;;;;;;;;;12.90;43.00;;;;;;5035298;28;19948;-80
2022/03/13 10:00:16;;;;;;;;;;;12.60;43.20;;;;;;5047537;28;19913;-79
2022/03/13 10:02:42;;;;;;;;;;;12.90;44.00;;;;;;5031765;28;20014;-80
2022/03/13 10:05:20;;;;;;;;;;;12.80;43.70;;;;;;5030774;28;19913;-80
2022/03/13 10:07:54;;;;;;;;;;;12.80;44.30;;;;;;5046786;28;19988;-79
2022/03/13 10:10:21;;;;;;;;;;;12.80;44.00;;;;;;5033380;28;20358;-79
2022/03/13 10:12:47;;;;;;;;;;;12.90;43.20;;;;;;5030298;28;20416;-80
2022/03/13 10:15:13;;;;;;;;;;;13.10;43.60;;;;;;5034063;28;20084;-82
2022/03/13 10:17:40;;;;;;;;;;;13.10;43.80;;;;;;5030770;28;19913;-80
2022/03/13 10:20:23;;;;;;;;;;;13.20;43.70;;;;;;5031629;28;19917;-79
2022/03/13 10:23:04;;;;;;;;;;;13.40;42.90;;;;;;5036109;28;19913;-79
2022/03/13 10:25:30;;;;;;;;;;;13.60;43.70;;;;;;5031043;28;20525;-80
2022/03/13 10:28:15;;;;;;;;;;;13.70;42.70;;;;;;5030898;28;19921;-81
2022/03/13 10:30:41;;;;;;;;;;;13.60;44.00;;;;;;5034529;28;19928;-81
2022/03/13 10:33:08;;;;;;;;;;;13.60;44.60;;;;;;5034445;28;20242;-81
2022/03/13 10:35:34;;;;;;;;;;;13.60;43.80;;;;;;5048969;28;19920;-81
2022/03/13 10:38:00;;;;;;;;;;;13.60;43.90;;;;;;5033731;28;20441;-82
2022/03/13 10:40:32;;;;;;;;;;;13.80;43.90;;;;;;5048151;28;19909;-80
2022/03/13 10:43:07;;;;;;;;;;;13.80;43.30;;;;;;5048818;28;19920;-80
2022/03/13 10:45:43;;;;;;;;;;;13.90;45.20;;;;;;5035328;28;19913;-80
2022/03/13 10:48:33;;;;;;;;;;;13.80;44.60;;;;;;5039772;28;19952;-82
2022/03/13 10:51:03;;;;;;;;;;;14.10;43.50;;;;;;5033989;28;20343;-79
2022/03/13 10:53:30;;;;;;;;;;;14.10;43.70;;;;;;5057320;28;19913;-78
2022/03/13 10:56:09;;;;;;;;;;;13.90;43.70;;;;;;5042445;28;19968;-79
2022/03/13 10:58:38;;;;;;;;;;;14.00;44.10;;;;;;5016947;28;19975;-81
2022/03/13 11:01:05;;;;;;;;;;;14.00;43.20;;;;;;5020099;28;19963;-80
2022/03/13 11:03:31;;;;;;;;;;;14.00;43.70;;;;;;5029784;28;19975;-80
2022/03/13 11:05:56;;;;;;;;;;;14.00;44.00;;;;;;5040919;28;19936;-79
2022/03/13 11:08:22;;;;;;;;;;;13.90;44.40;;;;;;5041076;28;19921;-80
2022/03/13 11:10:48;;;;;;;;;;;14.10;44.40;;;;;;5039542;28;19932;-80
2022/03/13 11:13:15;;;;;;;;;;;14.10;44.30;;;;;;5053721;28;19932;-81
2022/03/13 11:15:42;;;;;;;;;;;14.40;43.90;;;;;;5056889;28;19976;-82
2022/03/13 11:18:09;;;;;;;;;;;14.40;43.70;;;;;;5039810;28;19917;-81
2022/03/13 11:20:35;;;;;;;;;;;14.60;43.40;;;;;;5057594;28;19925;-82
2022/03/13 11:23:00;;;;;;;;;;;14.50;43.80;;;;;;5041351;28;19948;-80
2022/03/13 11:25:27;;;;;;;;;;;14.50;43.20;;;;;;5039254;28;20004;-80
2022/03/13 11:27:53;;;;;;;;;;;14.50;43.50;;;;;;5029486;28;19913;-81
2022/03/13 11:30:29;;;;;;;;;;;14.50;43.90;;;;;;5037673;28;20008;-80
2022/03/13 11:32:55;;;;;;;;;;;14.70;44.10;;;;;;5053713;28;19939;-80
2022/03/13 11:35:22;;;;;;;;;;;14.70;43.80;;;;;;5040553;28;20504;-85
2022/03/13 11:37:52;;;;;;;;;;;14.80;43.50;;;;;;5058105;28;19921;-81
2022/03/13 11:40:38;;;;;;;;;;;14.80;43.70;;;;;;5041533;28;20265;-83
2022/03/13 11:43:09;;;;;;;;;;;14.70;44.40;;;;;;5041373;28;19917;-82
2022/03/13 11:45:36;;;;;;;;;;;14.80;43.70;;;;;;5037798;28;19913;-84
2022/03/13 11:48:05;;;;;;;;;;;15.00;44.00;;;;;;5037873;28;19910;-83
2022/03/13 11:50:49;;;;;;;;;;;15.00;43.20;;;;;;5040764;28;19925;-83
2022/03/13 11:53:17;;;;;;;;;;;14.90;43.60;;;;;;5044329;28;19909;-84
2022/03/13 11:56:10;;;;;;;;;;;14.90;44.90;;;;;;5041687;28;19966;-83
2022/03/13 11:58:49;;;;;;;;;;;15.00;44.10;;;;;;5040994;28;19989;-85
2022/03/13 12:01:18;;;;;;;;;;;14.90;44.00;;;;;;5058830;28;20376;-82
2022/03/13 12:04:10;;;;;;;;;;;15.00;44.00;;;;;;5051772;28;20066;-84
2022/03/13 12:06:39;;;;;;;;;;;15.20;43.60;;;;;;5024490;28;19967;-83
2022/03/13 12:09:12;;;;;;;;;;;15.10;43.20;;;;;;5041473;28;19982;-83
2022/03/13 12:11:50;;;;;;;;;;;15.10;43.00;;;;;;5043313;28;19924;-84
2022/03/13 12:14:17;;;;;;;;;;;15.30;42.90;;;;;;5042069;28;20345;-82
2022/03/13 12:16:44;;;;;;;;;;;15.30;43.10;;;;;;5056831;28;19955;-83
2022/03/13 12:19:17;;;;;;;;;;;15.50;42.20;;;;;;5058512;28;19996;-82
2022/03/13 12:21:45;;;;;;;;;;;15.40;43.30;;;;;;5073376;28;19913;-82
2022/03/13 12:24:15;;;;;;;;;;;15.30;42.60;;;;;;5057575;28;19912;-81
2022/03/13 12:26:41;;;;;;;;;;;15.30;42.80;;;;;;5067753;28;20146;-81
2022/03/13 12:29:08;;;;;;;;;;;15.20;43.10;;;;;;5053708;28;19993;-82
2022/03/13 12:31:41;;;;;;;;;;;15.30;42.70;;;;;;5043520;28;19920;-82
2022/03/13 12:34:06;;;;;;;;;;;15.30;42.30;;;;;;5038096;28;19928;-82
2022/03/13 12:36:36;;;;;;;;;;;15.40;42.00;;;;;;5057514;28;19979;-81
2022/03/13 12:39:02;;;;;;;;;;;15.40;42.70;;;;;;5040366;28;19913;-83
2022/03/13 12:41:29;;;;;;;;;;;15.50;42.40;;;;;;5054426;28;20306;-84
2022/03/13 12:43:59;;;;;;;;;;;15.60;42.00;;;;;;5053442;28;19909;-83
2022/03/13 12:46:25;;;;;;;;;;;15.60;42.30;;;;;;5055593;28;20370;-82
2022/03/13 12:48:56;;;;;;;;;;;15.60;42.00;;;;;;5055428;28;19959;-81
2022/03/13 12:51:34;;;;;;;;;;;15.60;41.90;;;;;;5056933;28;19991;-82
2022/03/13 12:54:07;;;;;;;;;;;15.50;42.40;;;;;;5045115;28;20288;-81
2022/03/13 12:56:36;;;;;;;;;;;15.60;41.50;;;;;;5037231;28;19917;-82
2022/03/13 12:59:01;;;;;;;;;;;15.60;41.60;;;;;;5039687;28;20082;-83
2022/03/13 13:01:27;;;;;;;;;;;15.80;41.60;;;;;;5055945;28;20391;-84
2022/03/13 13:03:53;;;;;;;;;;;15.80;41.60;;;;;;5056110;28;19988;-81
2022/03/13 13:06:32;;;;;;;;;;;15.70;41.20;;;;;;5054738;28;19944;-84
2022/03/13 13:08:57;;;;;;;;;;;15.80;41.60;;;;;;5041340;28;19910;-84
2022/03/13 13:11:34;;;;;;;;;;;15.80;41.40;;;;;;5055705;28;19917;-84
2022/03/13 13:14:01;;;;;;;;;;;15.90;41.20;;;;;;5041582;28;20397;-83
2022/03/13 13:16:27;;;;;;;;;;;15.70;42.60;;;;;;5058318;28;20123;-82
2022/03/13 13:18:53;;;;;;;;;;;15.70;42.50;;;;;;5061450;28;19909;-82
2022/03/13 13:21:31;;;;;;;;;;;15.80;41.50;;;;;;5063360;28;19920;-82
2022/03/13 13:23:57;;;;;;;;;;;15.70;41.90;;;;;;5051410;28;19913;-82
2022/03/13 13:26:39;;;;;;;;;;;15.80;41.30;;;;;;5034072;28;19979;-83
2022/03/13 13:29:05;;;;;;;;;;;15.80;41.30;;;;;;5032956;28;19967;-83
2022/03/13 13:31:30;;;;;;;;;;;15.80;41.80;;;;;;5033449;28;19921;-82
2022/03/13 13:33:55;;;;;;;;;;;15.90;42.40;;;;;;5031077;28;19920;-82
2022/03/13 13:36:21;;;;;;;;;;;15.90;41.80;;;;;;5037488;28;19913;-84
2022/03/13 13:38:47;;;;;;;;;;;15.80;42.30;;;;;;5055189;28;19920;-83
2022/03/13 13:41:20;;;;;;;;;;;15.90;42.30;;;;;;5055736;28;19913;-84
2022/03/13 13:43:46;;;;;;;;;;;15.80;42.30;;;;;;5032062;28;19956;-80
2022/03/13 13:46:14;;;;;;;;;;;16.10;42.60;;;;;;5034397;28;19913;-81
2022/03/13 13:48:43;;;;;;;;;;;16.20;40.70;;;;;;5028409;28;19925;-79
2022/03/13 13:51:21;;;;;;;;;;;16.00;41.40;;;;;;5029281;28;19956;-81
2022/03/13 13:53:48;;;;;;;;;;;16.00;41.70;;;;;;5024007;28;20400;-81
2022/03/13 13:56:15;;;;;;;;;;;16.20;41.60;;;;;;5027435;28;19913;-81
2022/03/13 13:58:40;;;;;;;;;;;16.30;41.40;;;;;;5033724;28;19925;-81
2022/03/13 14:01:26;;;;;;;;;;;16.30;40.70;;;;;;5047777;28;20035;-83
2022/03/13 14:03:52;;;;;;;;;;;16.30;41.20;;;;;;5036625;28;19978;-82
2022/03/13 14:06:18;;;;;;;;;;;16.50;40.80;;;;;;5035236;28;19924;-82
2022/03/13 14:08:48;;;;;;;;;;;16.50;40.60;;;;;;5034191;28;19913;-80
2022/03/13 14:11:17;;;;;;;;;;;16.50;39.70;;;;;;5030986;28;19968;-80
2022/03/13 14:13:43;;;;;;;;;;;16.50;40.10;;;;;;5031252;28;20000;-78
2022/03/13 14:16:09;;;;;;;;;;;16.50;40.30;;;;;;5029187;28;19913;-80
2022/03/13 14:18:34;;;;;;;;;;;16.50;40.40;;;;;;5035048;28;20047;-79
2022/03/13 14:21:02;;;;;;;;;;;16.60;39.50;;;;;;5033015;28;20487;-81
2022/03/13 14:23:28;;;;;;;;;;;16.80;39.50;;;;;;5036686;28;19909;-84